Weather at Hummel Field

Public forecast

Using degrees Fahrenheit for public forecast. Weather courtesy of forecast.io.

Closest aviation weather report (METAR) to Hummel Field

Closest report is Middle Peninsula Regional Airport, 15.9 nm (29.4 km) WSW. Retrieved 2020/09/28 00:35 UTC (24 minutes ago):

KFYJ 280035Z AUTO 15003KT 10SM OVC045 21/19 A2995 RMK AO1 T02060191

Closest aviation forecast (TAF) to Hummel Field

Closest forecast is Newport News Williamsburg International Airport, 28.3 nm (52.5 km) S. Retrieved 2020-09-28 00:24 UTC (35 minutes ago):

TAF KPHF 272321Z 2800/2824 25005KT P6SM SCT018 OVC040 FM280700 VRB03KT P6SM VCSH OVC040 FM281000 21004KT P6SM BKN050 FM281500 20007KT P6SM SCT070